createdAt,value
2022-11-29T00:01:26.096Z,20.23
2022-11-29T00:06:26.795Z,21.75
2022-11-29T00:11:41.478Z,22.13
2022-11-29T00:16:42.874Z,22.52
2022-11-29T00:21:40.140Z,19.10
2022-11-29T00:26:37.340Z,20.63
2022-11-29T00:31:35.331Z,19.90
2022-11-29T00:36:38.576Z,22.60
2022-11-29T00:41:36.687Z,23.83
2022-11-29T00:46:33.747Z,19.70
2022-11-29T00:51:30.779Z,23.33
2022-11-29T00:56:29.490Z,22.25
2022-11-29T01:01:26.872Z,21.10
2022-11-29T01:06:23.941Z,19.88
2022-11-29T01:11:23.233Z,21.50
2022-11-29T01:16:21.740Z,22.25
2022-11-29T01:21:21.643Z,22.50
2022-11-29T01:26:21.630Z,23.00
2022-11-29T01:31:21.136Z,25.58
2022-11-29T01:36:19.224Z,21.25
2022-11-29T01:41:20.791Z,21.70
2022-11-29T01:46:17.883Z,21.17
2022-11-29T01:51:15.901Z,23.05
2022-11-29T01:56:15.711Z,21.38
2022-11-29T02:01:14.100Z,22.23
2022-11-29T02:06:11.249Z,22.42
2022-11-29T02:11:44.504Z,19.85
2022-11-29T02:16:56.542Z,23.40
2022-11-29T02:21:58.122Z,25.60
2022-11-29T02:27:18.287Z,27.13
2022-11-29T02:32:44.260Z,26.48
2022-11-29T02:37:58.563Z,24.08
2022-11-29T02:43:14.812Z,25.73
2022-11-29T02:48:33.120Z,25.95
2022-11-29T02:53:38.285Z,24.05
2022-11-29T02:58:43.926Z,21.77
2022-11-29T03:03:46.948Z,23.33
2022-11-29T03:08:52.276Z,23.52
2022-11-29T03:13:56.105Z,24.15
2022-11-29T03:19:05.366Z,25.23
2022-11-29T03:24:08.206Z,23.23
2022-11-29T03:29:20.299Z,22.80
2022-11-29T03:34:25.424Z,28.67
2022-11-29T03:39:33.186Z,25.83
2022-11-29T03:44:35.784Z,24.50
2022-11-29T03:49:41.353Z,28.92
2022-11-29T03:54:50.961Z,25.65
2022-11-29T04:00:02.041Z,27.25
2022-11-29T04:05:47.776Z,25.77
2022-11-29T04:11:05.971Z,23.98
2022-11-29T04:16:31.880Z,24.42
2022-11-29T04:21:56.060Z,22.55
2022-11-29T04:27:19.464Z,29.08
2022-11-29T04:32:39.837Z,25.70
2022-11-29T04:38:25.947Z,29.58
2022-11-29T04:43:47.383Z,23.15
2022-11-29T04:49:02.083Z,21.08
2022-11-29T04:54:13.353Z,22.85
2022-11-29T04:59:18.742Z,26.98
2022-11-29T05:04:21.782Z,25.42
2022-11-29T05:09:28.947Z,28.88
2022-11-29T05:14:40.723Z,25.70
2022-11-29T05:19:52.507Z,24.10
2022-11-29T05:25:00.978Z,25.65
2022-11-29T05:30:03.387Z,28.13
2022-11-29T05:35:16.834Z,26.90
2022-11-29T05:40:44.731Z,24.27
2022-11-29T05:45:49.350Z,25.83
2022-11-29T05:50:54.663Z,30.30
2022-11-29T05:56:04.876Z,27.23
2022-11-29T06:01:29.106Z,28.23
2022-11-29T06:06:46.013Z,28.08
2022-11-29T06:11:47.601Z,29.20
2022-11-29T06:17:19.745Z,28.88
2022-11-29T06:22:43.042Z,31.42
2022-11-29T06:28:01.838Z,30.35
2022-11-29T06:33:05.838Z,28.17
2022-11-29T06:38:12.452Z,30.13
2022-11-29T06:43:14.296Z,30.13
2022-11-29T06:48:16.083Z,28.08
2022-11-29T06:53:22.676Z,27.48
2022-11-29T06:58:43.787Z,34.55
2022-11-29T07:04:05.039Z,36.40
2022-11-29T07:09:13.951Z,38.80
2022-11-29T07:14:22.405Z,39.53
2022-11-29T07:19:28.814Z,36.70
2022-11-29T07:24:41.853Z,35.88
2022-11-29T07:29:48.906Z,36.38
2022-11-29T07:34:58.574Z,44.65
2022-11-29T07:40:03.522Z,37.10
2022-11-29T07:45:13.120Z,32.22
2022-11-29T07:50:12.569Z,30.88
2022-11-29T07:55:18.497Z,34.20
2022-11-29T08:00:18.710Z,32.25
2022-11-29T08:05:21.805Z,27.33
2022-11-29T08:10:20.664Z,31.58
2022-11-29T08:15:25.148Z,35.00
2022-11-29T08:20:29.607Z,32.58
2022-11-29T08:25:30.495Z,30.52
2022-11-29T08:30:33.340Z,29.83
2022-11-29T08:35:31.816Z,29.15
2022-11-29T08:40:29.359Z,28.02
2022-11-29T08:45:28.087Z,26.58
2022-11-29T08:50:28.545Z,37.72
2022-11-29T08:55:32.094Z,45.80
2022-11-29T09:00:30.452Z,39.13
2022-11-29T09:05:30.003Z,32.72
2022-11-29T09:10:49.082Z,36.05
2022-11-29T09:15:47.168Z,28.77
2022-11-29T09:20:58.888Z,26.00
2022-11-29T09:26:02.141Z,28.02
2022-11-29T09:31:05.586Z,27.42
2022-11-29T09:36:08.833Z,30.75
2022-11-29T09:41:58.936Z,29.63
2022-11-29T09:47:17.711Z,27.13
2022-11-29T09:52:28.997Z,20.92
2022-11-29T09:57:30.073Z,24.67
2022-11-29T10:02:37.442Z,40.22
2022-11-29T10:07:44.912Z,37.05
2022-11-29T10:12:48.978Z,40.10
2022-11-29T10:17:54.087Z,59.33
2022-11-29T10:22:56.919Z,43.50
2022-11-29T10:27:55.846Z,42.17
2022-11-29T10:32:58.164Z,33.15
2022-11-29T10:38:29.852Z,27.33
2022-11-29T10:43:26.331Z,31.15
2022-11-29T10:48:33.508Z,23.65
2022-11-29T10:53:40.012Z,19.50
2022-11-29T10:58:55.732Z,20.23
2022-11-29T11:04:14.711Z,19.30
2022-11-29T11:09:54.413Z,20.05
2022-11-29T11:14:53.995Z,24.85
2022-11-29T11:20:02.843Z,26.55
2022-11-29T11:30:38.850Z,22.92
2022-11-29T11:35:45.560Z,24.05
2022-11-29T11:41:11.424Z,20.38
2022-11-29T11:46:17.683Z,21.08
2022-11-29T11:51:58.009Z,27.50
2022-11-29T11:57:09.671Z,31.27
2022-11-29T12:02:25.979Z,30.67
2022-11-29T12:07:59.780Z,23.70
2022-11-29T12:12:57.366Z,25.02
2022-11-29T12:18:09.094Z,21.55
2022-11-29T12:23:24.694Z,22.58
2022-11-29T12:28:28.647Z,25.52
2022-11-29T12:33:38.409Z,38.30
2022-11-29T12:44:18.533Z,19.40
2022-11-29T12:49:29.753Z,20.50
2022-11-29T12:54:40.492Z,16.13
2022-11-29T13:00:11.539Z,18.85
2022-11-29T13:05:19.364Z,20.48
2022-11-29T13:10:33.066Z,17.85
2022-11-29T13:15:39.845Z,13.35
2022-11-29T13:20:44.992Z,20.95
2022-11-29T13:25:48.433Z,19.43
2022-11-29T13:30:47.355Z,18.25
2022-11-29T13:35:52.944Z,19.35
2022-11-29T13:40:59.375Z,22.42
2022-11-29T13:46:06.115Z,18.60
2022-11-29T13:51:26.926Z,16.35
2022-11-29T13:56:32.245Z,12.55
2022-11-29T14:01:55.978Z,20.05
2022-11-29T14:07:12.313Z,14.00
2022-11-29T14:12:37.927Z,14.15
2022-11-29T14:17:48.615Z,14.57
2022-11-29T14:23:13.769Z,15.63
2022-11-29T14:28:39.955Z,17.13
2022-11-29T14:34:06.816Z,19.83
2022-11-29T14:39:30.976Z,20.25
2022-11-29T14:44:33.906Z,17.08
2022-11-29T14:49:40.570Z,19.23
2022-11-29T14:55:03.418Z,28.23
2022-11-29T15:00:07.282Z,27.05
2022-11-29T15:05:17.985Z,25.05
2022-11-29T15:10:21.376Z,21.92
2022-11-29T15:16:09.345Z,25.67
2022-11-29T15:21:40.862Z,30.73
2022-11-29T15:26:44.408Z,24.73
2022-11-29T15:31:47.124Z,26.58
2022-11-29T15:36:49.995Z,22.52
2022-11-29T15:42:02.078Z,31.13
2022-11-29T15:47:14.568Z,34.65
2022-11-29T15:52:20.751Z,30.90
2022-11-29T15:57:26.144Z,27.35
2022-11-29T16:02:27.261Z,32.75
2022-11-29T16:07:26.944Z,38.97
2022-11-29T16:12:24.597Z,34.20
2022-11-29T16:17:25.036Z,30.85
2022-11-29T16:22:23.710Z,33.47
2022-11-29T16:27:25.077Z,43.03
2022-11-29T16:32:29.381Z,32.30
2022-11-29T16:37:32.588Z,36.63
2022-11-29T16:42:31.908Z,36.67
2022-11-29T16:47:38.869Z,40.38
2022-11-29T16:52:47.539Z,33.08
2022-11-29T16:57:52.353Z,32.78
2022-11-29T17:02:52.703Z,37.53
2022-11-29T17:07:51.700Z,25.45
2022-11-29T17:13:05.257Z,37.28
2022-11-29T17:18:10.542Z,28.05
2022-11-29T17:23:08.937Z,27.73
2022-11-29T17:28:10.159Z,27.80
2022-11-29T17:33:07.247Z,31.20
2022-11-29T17:38:18.143Z,33.40
2022-11-29T17:44:00.133Z,35.35
2022-11-29T17:49:10.023Z,40.25
2022-11-29T17:54:12.953Z,40.92
2022-11-29T17:59:13.559Z,43.92
2022-11-29T18:04:15.612Z,36.85
2022-11-29T18:09:17.063Z,40.60
2022-11-29T18:14:16.621Z,36.50
2022-11-29T18:19:15.646Z,31.20
2022-11-29T18:24:13.235Z,35.08
2022-11-29T18:29:10.448Z,36.28
2022-11-29T18:34:12.670Z,32.75
2022-11-29T18:39:14.070Z,33.75
2022-11-29T18:44:13.310Z,36.92
2022-11-29T18:49:13.472Z,37.70
2022-11-29T18:54:24.592Z,38.97
2022-11-29T18:59:29.761Z,39.28
2022-11-29T19:04:27.805Z,42.42
2022-11-29T19:09:25.461Z,40.90
2022-11-29T19:15:13.231Z,37.08
2022-11-29T19:20:52.616Z,49.10
2022-11-29T19:26:11.388Z,45.45
2022-11-29T19:31:13.072Z,50.58
2022-11-29T19:36:13.676Z,41.95
2022-11-29T19:41:16.795Z,46.08
2022-11-29T19:46:22.212Z,35.95
2022-11-29T19:51:25.192Z,43.65
2022-11-29T19:56:23.517Z,42.47
2022-11-29T20:01:22.508Z,45.33
2022-11-29T20:06:24.265Z,37.60
2022-11-29T20:11:23.363Z,64.68
2022-11-29T20:16:24.794Z,40.67
2022-11-29T20:21:26.532Z,30.00
2022-11-29T20:26:32.776Z,35.70
2022-11-29T20:31:36.737Z,35.70
2022-11-29T20:36:46.474Z,32.23
2022-11-29T20:42:12.897Z,32.10
2022-11-29T20:47:29.560Z,34.17
2022-11-29T20:52:38.603Z,30.70
2022-11-29T20:57:42.087Z,34.40
2022-11-29T21:02:43.156Z,29.98
2022-11-29T21:07:41.240Z,34.75
2022-11-29T21:12:38.894Z,25.70
2022-11-29T21:17:40.176Z,31.17
2022-11-29T21:23:00.698Z,36.72
2022-11-29T21:28:03.559Z,36.15
2022-11-29T21:33:01.313Z,27.77
2022-11-29T21:38:00.972Z,33.20
2022-11-29T21:42:58.324Z,32.97
2022-11-29T21:47:59.400Z,35.53
2022-11-29T21:52:56.484Z,33.55
2022-11-29T21:57:54.384Z,30.30
2022-11-29T22:02:51.681Z,28.20
2022-11-29T22:07:54.806Z,26.63
2022-11-29T22:12:52.848Z,24.90
2022-11-29T22:17:51.057Z,24.13
2022-11-29T22:22:50.091Z,24.85
2022-11-29T22:27:49.739Z,23.15
2022-11-29T22:32:46.802Z,27.08
2022-11-29T22:37:45.272Z,28.67
2022-11-29T22:42:42.669Z,26.27
2022-11-29T22:47:43.087Z,29.95
2022-11-29T22:52:44.499Z,27.88
2022-11-29T22:57:42.127Z,30.85
2022-11-29T23:02:42.213Z,31.17
2022-11-29T23:07:42.398Z,32.40
2022-11-29T23:12:39.365Z,36.47
2022-11-29T23:17:36.997Z,35.42
2022-11-29T23:22:38.141Z,32.75
2022-11-29T23:27:38.056Z,34.17
2022-11-29T23:32:34.878Z,32.80
2022-11-29T23:37:33.794Z,33.75
2022-11-29T23:42:30.701Z,26.23
2022-11-29T23:47:27.573Z,31.48
2022-11-29T23:52:24.825Z,28.98
2022-11-29T23:57:22.646Z,37.47
